This is the latest recevied weather packets stored in our database for station/object K0APR. If no packets are shown the sender has not sent any weather packets the latest 10 day(s).
| Time | Temp. | Humidity | Pressure | Rain* | Wind** | Luminosity | Snow |
|---|---|---|---|---|---|---|---|
| 1777746895 | 18.89° C | 32% | 1014.7 hPa | 0 mm | - | 589 W/m² | - |
| 1777746590 | 19.44° C | 33% | 1015.1 hPa | 0 mm | - | 523 W/m² | - |
| 1777746286 | 19.44° C | 34% | 1014.7 hPa | 0 mm | - | 614 W/m² | - |
| 1777745680 | 18.89° C | 34% | 1015.1 hPa | 0 mm | - | 547 W/m² | - |
| 1777745380 | 18.33° C | 36% | 1015.5 hPa | 0 mm | - | 648 W/m² | - |
| 1777745076 | 18.33° C | 34% | 1015.5 hPa | 0 mm | - | 604 W/m² | - |
| 1777744772 | 18.33° C | 35% | 1015.5 hPa | 0 mm | - | 668 W/m² | - |
| 1777744466 | 18.89° C | 35% | 1015.5 hPa | 0 mm | - | 629 W/m² | - |
| 1777744163 | 18.33° C | 36% | 1015.5 hPa | 0 mm | - | 640 W/m² | - |
| 1777743860 | 18.89° C | 35% | 1015.8 hPa | 0 mm | - | 646 W/m² | - |
| 1777743556 | 18.89° C | 34% | 1015.8 hPa | 0 mm | - | 658 W/m² | - |
| 1777742041 | 17.22° C | 38% | 1015.8 hPa | 0 mm | - | 616 W/m² | - |
| 1777741738 | 17.78° C | 37% | 1016.1 hPa | 0 mm | - | 641 W/m² | - |
| 1777741130 | 17.22° C | 38% | 1016.5 hPa | 0 mm | - | 666 W/m² | - |
| 1777740525 | 17.22° C | 38% | 1016.5 hPa | 0 mm | - | 658 W/m² | - |
| 1777739917 | 16.67° C | 38% | 1016.5 hPa | 0 mm | - | 665 W/m² | - |
| 1777739312 | 17.22° C | 37% | 1016.8 hPa | 0 mm | - | 705 W/m² | - |
| 1777738705 | 16.11° C | 42% | 1016.8 hPa | 0 mm | - | 703 W/m² | - |
| 1777738099 | 16.11° C | 39% | 1017.2 hPa | 0 mm | - | 707 W/m² | - |
| 1777737497 | 15.56° C | 40% | 1017.2 hPa | 0 mm | - | 661 W/m² | - |
| 1777736276 | 15° C | 40% | 1017.5 hPa | 0 mm | - | 634 W/m² | - |
| 1777735972 | 14.44° C | 41% | 1017.5 hPa | 0 mm | - | 616 W/m² | - |
| 1777735670 | 14.44° C | 39% | 1017.5 hPa | 0 mm | - | 606 W/m² | - |
| 1777735367 | 14.44° C | 39% | 1017.5 hPa | 0 mm | - | 599 W/m² | - |
| 1777735064 | 13.89° C | 39% | 1017.9 hPa | 0 mm | - | 591 W/m² | - |
* Rain latest hour (hover to see other rain measurements)
** Current wind speed in m/s (hover to see current wind gust speed)